createdAt,value
2018-06-28T00:00:23.304Z,99135.00
2018-06-28T00:02:52.436Z,99131.00
2018-06-28T00:05:23.090Z,99126.00
2018-06-28T00:07:52.366Z,99131.00
2018-06-28T00:10:21.669Z,99126.00
2018-06-28T00:12:50.797Z,99121.00
2018-06-28T00:15:21.174Z,99127.00
2018-06-28T00:17:51.006Z,99124.00
2018-06-28T00:20:20.218Z,99131.00
2018-06-28T00:22:49.621Z,99132.00
2018-06-28T00:25:20.822Z,99129.00
2018-06-28T00:27:50.021Z,99131.00
2018-06-28T00:30:20.081Z,99135.00
2018-06-28T00:32:49.236Z,99129.00
2018-06-28T00:35:18.635Z,99131.00
2018-06-28T00:37:47.801Z,99127.00
2018-06-28T00:40:17.800Z,99131.00
2018-06-28T00:42:47.175Z,99123.00
2018-06-28T00:45:17.690Z,99127.00
2018-06-28T00:47:47.037Z,99130.00
2018-06-28T00:50:16.973Z,99127.00
2018-06-28T00:52:47.892Z,99122.00
2018-06-28T00:55:19.231Z,99122.00
2018-06-28T00:57:50.358Z,99127.00
2018-06-28T01:00:20.549Z,99126.00
2018-06-28T01:02:50.902Z,99126.00
2018-06-28T01:05:21.875Z,99124.00
2018-06-28T01:07:51.461Z,99120.00
2018-06-28T01:10:20.666Z,99120.00
2018-06-28T01:12:49.868Z,99119.00
2018-06-28T01:15:18.981Z,99118.00
2018-06-28T01:17:50.232Z,99114.00
2018-06-28T01:20:19.614Z,99116.00
2018-06-28T01:22:48.825Z,99113.00
2018-06-28T01:25:20.363Z,99114.00
2018-06-28T01:27:49.798Z,99113.00
2018-06-28T01:30:19.507Z,99113.00
2018-06-28T01:32:49.737Z,99113.00
2018-06-28T01:35:18.985Z,99114.00
2018-06-28T01:37:48.200Z,99111.00
2018-06-28T01:40:17.594Z,99110.00
2018-06-28T01:43:03.669Z,99116.00
2018-06-28T01:45:37.308Z,99110.00
2018-06-28T01:48:07.737Z,99108.00
2018-06-28T01:50:37.233Z,99113.00
2018-06-28T01:53:06.731Z,99115.00
2018-06-28T01:55:36.429Z,99119.00
2018-06-28T01:58:06.448Z,99123.00
2018-06-28T02:00:35.673Z,99116.00
2018-06-28T02:03:04.828Z,99118.00
2018-06-28T02:05:34.173Z,99125.00
2018-06-28T02:08:04.854Z,99127.00
2018-06-28T02:10:34.001Z,99132.00
2018-06-28T02:13:03.453Z,99137.00
2018-06-28T02:15:33.021Z,99132.00
2018-06-28T02:18:02.182Z,99130.00
2018-06-28T02:20:31.432Z,99130.00
2018-06-28T02:23:00.817Z,99136.00
2018-06-28T02:25:31.800Z,99134.00
2018-06-28T02:28:01.159Z,99135.00
2018-06-28T02:30:30.876Z,99131.00
2018-06-28T02:33:00.064Z,99133.00
2018-06-28T02:35:29.369Z,99134.00
2018-06-28T02:37:58.613Z,99132.00
2018-06-28T02:40:27.820Z,99132.00
2018-06-28T02:42:57.157Z,99138.00
2018-06-28T02:45:26.333Z,99138.00
2018-06-28T02:47:55.604Z,99139.00
2018-06-28T02:50:25.109Z,99137.00
2018-06-28T02:52:54.236Z,99134.00
2018-06-28T02:55:25.265Z,99133.00
2018-06-28T02:57:54.657Z,99139.00
2018-06-28T03:00:23.777Z,99133.00
2018-06-28T03:02:53.564Z,99127.00
2018-06-28T03:05:23.452Z,99131.00
2018-06-28T03:07:52.726Z,99133.00
2018-06-28T03:10:21.801Z,99131.00
2018-06-28T03:12:51.547Z,99129.00
2018-06-28T03:15:20.725Z,99132.00
2018-06-28T03:17:49.921Z,99130.00
2018-06-28T03:20:19.387Z,99134.00
2018-06-28T03:22:48.492Z,99129.00
2018-06-28T03:25:17.605Z,99134.00
2018-06-28T03:27:47.500Z,99135.00
2018-06-28T03:30:16.741Z,99137.00
2018-06-28T03:32:45.901Z,99135.00
2018-06-28T03:35:15.949Z,99135.00
2018-06-28T03:37:45.140Z,99138.00
2018-06-28T03:40:14.215Z,99142.00
2018-06-28T03:42:43.460Z,99146.00
2018-06-28T03:45:12.638Z,99151.00
2018-06-28T03:47:42.350Z,99148.00
2018-06-28T03:50:11.529Z,99151.00
2018-06-28T03:52:40.909Z,99144.00
2018-06-28T03:55:11.785Z,99145.00
2018-06-28T03:57:41.014Z,99142.00
2018-06-28T04:00:10.169Z,99140.00
2018-06-28T04:02:41.005Z,99136.00
2018-06-28T04:05:10.182Z,99139.00
2018-06-28T04:07:39.417Z,99133.00
2018-06-28T04:10:08.806Z,99126.00
2018-06-28T04:12:37.948Z,99127.00
2018-06-28T04:15:08.352Z,99132.00
2018-06-28T04:17:37.553Z,99134.00
2018-06-28T04:20:07.421Z,99133.00
2018-06-28T04:22:36.557Z,99134.00
2018-06-28T04:25:07.165Z,99137.00
2018-06-28T04:27:36.397Z,99137.00
2018-06-28T04:30:06.514Z,99135.00
2018-06-28T04:32:35.681Z,99139.00
2018-06-28T04:35:06.733Z,99137.00
2018-06-28T04:37:35.902Z,99137.00
2018-06-28T04:40:05.101Z,99134.00
2018-06-28T04:42:34.192Z,99133.00
2018-06-28T04:45:05.029Z,99125.00
2018-06-28T04:47:34.381Z,99132.00
2018-06-28T04:50:05.167Z,99127.00
2018-06-28T04:52:36.943Z,99124.00
2018-06-28T04:55:06.073Z,99132.00
2018-06-28T04:57:39.256Z,99133.00
2018-06-28T05:01:37.933Z,99134.00
2018-06-28T05:04:07.573Z,99128.00
2018-06-28T05:06:37.269Z,99128.00
2018-06-28T05:09:08.629Z,99125.00
2018-06-28T05:11:37.888Z,99123.00
2018-06-28T05:14:07.510Z,99119.00
2018-06-28T05:16:37.561Z,99112.00
2018-06-28T05:19:07.253Z,99118.00
2018-06-28T05:21:36.989Z,99122.00
2018-06-28T05:24:06.463Z,99124.00
2018-06-28T05:26:35.585Z,99129.00
2018-06-28T05:29:04.840Z,99127.00
2018-06-28T05:31:34.149Z,99133.00
2018-06-28T05:34:03.253Z,99131.00
2018-06-28T05:36:32.451Z,99127.00
2018-06-28T05:39:01.881Z,99126.00
2018-06-28T05:41:31.226Z,99126.00
2018-06-28T05:44:00.473Z,99127.00
2018-06-28T05:46:31.098Z,99126.00
2018-06-28T05:49:00.254Z,99121.00
2018-06-28T05:51:29.376Z,99123.00
2018-06-28T05:53:58.759Z,99125.00
2018-06-28T05:56:28.108Z,99127.00
2018-06-28T05:58:57.284Z,99132.00
2018-06-28T06:01:27.350Z,99127.00
2018-06-28T06:03:56.778Z,99128.00
2018-06-28T06:06:26.229Z,99121.00
2018-06-28T06:08:55.405Z,99131.00
2018-06-28T06:11:24.501Z,99128.00
2018-06-28T06:13:53.737Z,99115.00
2018-06-28T06:16:22.940Z,99128.00
2018-06-28T06:18:52.033Z,99128.00
2018-06-28T06:21:23.460Z,99123.00
2018-06-28T06:23:55.021Z,99126.00
2018-06-28T06:26:25.449Z,99118.00
2018-06-28T06:28:54.700Z,99117.00
2018-06-28T06:31:24.015Z,99115.00
2018-06-28T06:33:53.149Z,99110.00
2018-06-28T06:36:25.017Z,99112.00
2018-06-28T06:38:54.774Z,99110.00
2018-06-28T06:41:26.300Z,99104.00
2018-06-28T06:43:57.315Z,99110.00
2018-06-28T06:46:29.237Z,99109.00
2018-06-28T06:49:08.282Z,99109.00
2018-06-28T06:51:38.182Z,99100.00
2018-06-28T06:54:07.369Z,99093.00
2018-06-28T06:56:37.293Z,99095.00
2018-06-28T06:59:10.089Z,99089.00
2018-06-28T07:01:40.974Z,99090.00
2018-06-28T07:04:16.592Z,99080.00
2018-06-28T07:06:48.937Z,99073.00
2018-06-28T07:09:18.334Z,99081.00
2018-06-28T07:11:56.796Z,99080.00
2018-06-28T07:14:25.960Z,99085.00
2018-06-28T07:16:55.268Z,99078.00
2018-06-28T07:19:25.327Z,99082.00
2018-06-28T07:21:54.581Z,99075.00
2018-06-28T07:24:28.017Z,99075.00
2018-06-28T07:26:58.517Z,99077.00
2018-06-28T07:29:27.994Z,99063.00
2018-06-28T07:31:57.238Z,99062.00
2018-06-28T07:34:27.265Z,99061.00
2018-06-28T07:36:58.612Z,99061.00
2018-06-28T07:39:28.118Z,99054.00
2018-06-28T07:41:57.540Z,99062.00
2018-06-28T07:44:26.746Z,99062.00
2018-06-28T07:46:56.255Z,99063.00
2018-06-28T07:49:26.746Z,99068.00
2018-06-28T07:51:56.782Z,99062.00
2018-06-28T07:54:28.286Z,99055.00
2018-06-28T07:56:57.506Z,99051.00
2018-06-28T07:59:26.719Z,99044.00
2018-06-28T08:01:57.725Z,99040.00
2018-06-28T08:04:30.252Z,99023.00
2018-06-28T08:06:59.430Z,99040.00
2018-06-28T08:09:30.490Z,99015.00
2018-06-28T08:12:01.591Z,99032.00
2018-06-28T08:14:33.577Z,99028.00
2018-06-28T08:17:02.765Z,99024.00
2018-06-28T08:19:32.087Z,99022.00
2018-06-28T08:22:01.540Z,99002.00
2018-06-28T08:31:16.297Z,99021.00
2018-06-28T08:33:48.270Z,99017.00
2018-06-28T08:36:17.658Z,99011.00
2018-06-28T08:38:46.853Z,98994.00
2018-06-28T08:41:16.832Z,99011.00
2018-06-28T08:43:47.474Z,99010.00
2018-06-28T08:46:16.699Z,99015.00
2018-06-28T08:48:46.358Z,99021.00
2018-06-28T08:51:16.574Z,99021.00
2018-06-28T08:53:45.787Z,99013.00
2018-06-28T08:56:15.905Z,99012.00
2018-06-28T08:58:45.081Z,99003.00
2018-06-28T09:01:15.266Z,99001.00
2018-06-28T09:03:44.522Z,99000.00
2018-06-28T09:06:13.691Z,99015.00
2018-06-28T09:08:42.868Z,99011.00
2018-06-28T09:11:12.060Z,99003.00
2018-06-28T09:13:41.698Z,98992.00
2018-06-28T09:16:11.229Z,99006.00
2018-06-28T09:18:40.365Z,99003.00
2018-06-28T09:21:10.195Z,98996.00
2018-06-28T09:23:39.770Z,98995.00
2018-06-28T09:26:09.037Z,98986.00
2018-06-28T09:28:38.164Z,98985.00
2018-06-28T09:31:07.828Z,98983.00
2018-06-28T09:33:38.786Z,99012.00
2018-06-28T09:36:08.222Z,99005.00
2018-06-28T09:40:06.852Z,98999.00
2018-06-28T09:42:37.310Z,98997.00
2018-06-28T09:45:07.413Z,98987.00
2018-06-28T09:47:36.637Z,98984.00
2018-06-28T09:50:07.269Z,98979.00
2018-06-28T09:52:36.412Z,98973.00
2018-06-28T09:56:37.949Z,98971.00
2018-06-28T09:59:07.800Z,98970.00
2018-06-28T10:01:37.104Z,98976.00
2018-06-28T10:04:08.643Z,98984.00
2018-06-28T10:06:38.359Z,98971.00
2018-06-28T10:09:09.985Z,98975.00
2018-06-28T10:11:39.139Z,98957.00
2018-06-28T10:14:08.593Z,98953.00
2018-06-28T10:16:38.161Z,98955.00
2018-06-28T10:19:11.158Z,98954.00
2018-06-28T10:21:42.212Z,98938.00
2018-06-28T10:24:13.090Z,98947.00
2018-06-28T10:26:43.921Z,98940.00
2018-06-28T10:29:13.606Z,98927.00
2018-06-28T10:31:42.829Z,98934.00
2018-06-28T10:34:12.756Z,98949.00
2018-06-28T10:36:41.947Z,98937.00
2018-06-28T10:39:12.464Z,98942.00
2018-06-28T10:41:42.304Z,98939.00
2018-06-28T10:44:11.485Z,98934.00
2018-06-28T10:46:41.612Z,98934.00
2018-06-28T10:49:10.953Z,98926.00
2018-06-28T10:51:41.039Z,98915.00
2018-06-28T10:54:10.581Z,98897.00
2018-06-28T10:56:42.461Z,98901.00
2018-06-28T10:59:13.298Z,98917.00
2018-06-28T11:01:44.504Z,98917.00
2018-06-28T11:04:15.273Z,98913.00
2018-06-28T11:06:46.642Z,98922.00
2018-06-28T11:09:15.910Z,98922.00
2018-06-28T11:11:45.547Z,98895.00
2018-06-28T11:14:16.005Z,98909.00
2018-06-28T11:16:45.317Z,98898.00
2018-06-28T11:19:14.617Z,98893.00
2018-06-28T11:21:44.664Z,98879.00
2018-06-28T11:24:14.896Z,98885.00
2018-06-28T11:26:45.596Z,98860.00
2018-06-28T11:29:15.825Z,98873.00
2018-06-28T11:31:47.505Z,98880.00
2018-06-28T11:34:16.641Z,98876.00
2018-06-28T11:36:45.928Z,98878.00
2018-06-28T11:39:15.868Z,98880.00
2018-06-28T11:41:45.166Z,98865.00
2018-06-28T11:44:14.474Z,98851.00
2018-06-28T11:46:44.353Z,98852.00
2018-06-28T11:49:14.212Z,98839.00
2018-06-28T11:51:43.381Z,98848.00
2018-06-28T11:54:13.784Z,98847.00
2018-06-28T11:56:44.106Z,98834.00
2018-06-28T11:59:14.801Z,98845.00
2018-06-28T12:01:44.317Z,98845.00
2018-06-28T12:04:14.422Z,98844.00
2018-06-28T12:06:44.834Z,98847.00
2018-06-28T12:09:14.432Z,98837.00
2018-06-28T12:11:44.207Z,98833.00
2018-06-28T12:14:13.900Z,98817.00
2018-06-28T12:16:44.574Z,98833.00
2018-06-28T12:19:14.524Z,98838.00
2018-06-28T12:21:43.708Z,98834.00
2018-06-28T12:24:13.417Z,98816.00
2018-06-28T12:26:42.681Z,98817.00
2018-06-28T12:29:12.506Z,98819.00
2018-06-28T12:31:41.769Z,98821.00
2018-06-28T12:34:11.033Z,98814.00
2018-06-28T12:36:41.829Z,98798.00
2018-06-28T12:39:11.909Z,98802.00
2018-06-28T12:41:41.021Z,98799.00
2018-06-28T12:44:10.490Z,98804.00
2018-06-28T12:48:09.552Z,98785.00
2018-06-28T12:50:38.992Z,98789.00
2018-06-28T12:53:12.776Z,98793.00
2018-06-28T12:56:49.465Z,98785.00
2018-06-28T12:59:20.106Z,98763.00
2018-06-28T13:01:49.779Z,98773.00
2018-06-28T13:04:19.034Z,98784.00
2018-06-28T13:06:48.403Z,98787.00
2018-06-28T13:09:18.342Z,98793.00
2018-06-28T13:11:49.052Z,98792.00
2018-06-28T13:14:18.430Z,98783.00
2018-06-28T13:16:47.789Z,98776.00
2018-06-28T13:19:18.410Z,98777.00
2018-06-28T13:21:47.625Z,98762.00
2018-06-28T13:24:17.605Z,98770.00
2018-06-28T13:26:46.921Z,98758.00
2018-06-28T13:29:18.186Z,98762.00
2018-06-28T13:31:47.801Z,98763.00
2018-06-28T13:34:21.224Z,98765.00
2018-06-28T13:36:51.909Z,98769.00
2018-06-28T13:39:22.545Z,98778.00
2018-06-28T13:41:56.633Z,98773.00
2018-06-28T13:44:26.580Z,98772.00
2018-06-28T13:46:56.390Z,98778.00
2018-06-28T13:49:29.624Z,98772.00
2018-06-28T13:51:59.391Z,98774.00
2018-06-28T13:54:29.251Z,98773.00
2018-06-28T13:56:58.579Z,98769.00
2018-06-28T13:59:28.871Z,98773.00
2018-06-28T14:01:58.784Z,98774.00
2018-06-28T14:04:28.635Z,98772.00
2018-06-28T14:06:58.718Z,98768.00
2018-06-28T14:09:27.983Z,98755.00
2018-06-28T14:11:57.333Z,98753.00
2018-06-28T14:14:26.553Z,98756.00
2018-06-28T14:16:56.295Z,98748.00
2018-06-28T14:19:25.509Z,98743.00
2018-06-28T14:21:55.497Z,98738.00
2018-06-28T14:24:25.601Z,98733.00
2018-06-28T14:26:56.773Z,98731.00
2018-06-28T14:29:27.042Z,98733.00
2018-06-28T14:31:56.916Z,98741.00
2018-06-28T14:34:26.181Z,98745.00
2018-06-28T14:36:55.450Z,98740.00
2018-06-28T14:39:25.515Z,98728.00
2018-06-28T14:41:54.716Z,98729.00
2018-06-28T14:44:24.409Z,98730.00
2018-06-28T14:46:53.929Z,98722.00
2018-06-28T14:49:24.104Z,98721.00
2018-06-28T14:51:53.326Z,98714.00
2018-06-28T14:54:22.737Z,98708.00
2018-06-28T14:56:52.200Z,98713.00
2018-06-28T14:59:21.344Z,98720.00
2018-06-28T15:01:50.567Z,98717.00
2018-06-28T15:04:21.285Z,98710.00
2018-06-28T15:06:50.713Z,98714.00
2018-06-28T15:09:19.865Z,98708.00
2018-06-28T15:11:49.649Z,98702.00
2018-06-28T15:14:19.462Z,98696.00
2018-06-28T15:16:48.824Z,98686.00
2018-06-28T15:19:18.325Z,98694.00
2018-06-28T15:21:48.408Z,98687.00
2018-06-28T15:24:18.537Z,98688.00
2018-06-28T15:26:48.165Z,98686.00
2018-06-28T15:29:17.380Z,98679.00
2018-06-28T15:31:49.241Z,98683.00
2018-06-28T15:35:47.933Z,98691.00
2018-06-28T15:38:17.381Z,98675.00
2018-06-28T15:40:46.506Z,98676.00
2018-06-28T15:43:15.693Z,98679.00
2018-06-28T15:45:46.707Z,98679.00
2018-06-28T15:48:15.824Z,98688.00
2018-06-28T15:50:45.995Z,98681.00
2018-06-28T15:53:15.454Z,98683.00
2018-06-28T15:55:45.353Z,98683.00
2018-06-28T15:58:14.811Z,98693.00
2018-06-28T16:00:45.952Z,98678.00
2018-06-28T16:03:16.944Z,98690.00
2018-06-28T16:05:46.605Z,98688.00
2018-06-28T16:08:16.260Z,98694.00
2018-06-28T16:10:45.374Z,98684.00
2018-06-28T16:13:15.636Z,98684.00
2018-06-28T16:15:44.793Z,98681.00
2018-06-28T16:18:14.044Z,98677.00
2018-06-28T16:20:43.216Z,98677.00
2018-06-28T16:23:13.461Z,98676.00
2018-06-28T16:25:44.132Z,98671.00
2018-06-28T16:28:13.362Z,98679.00
2018-06-28T16:30:44.092Z,98674.00
2018-06-28T16:33:15.071Z,98686.00
2018-06-28T16:35:44.228Z,98688.00
2018-06-28T16:38:14.454Z,98681.00
2018-06-28T16:40:43.928Z,98673.00
2018-06-28T16:43:13.135Z,98676.00
2018-06-28T16:45:42.748Z,98681.00
2018-06-28T16:48:11.944Z,98679.00
2018-06-28T16:50:41.188Z,98675.00
2018-06-28T16:53:11.182Z,98676.00
2018-06-28T16:55:40.675Z,98680.00
2018-06-28T16:58:11.417Z,98674.00
2018-06-28T17:00:41.981Z,98670.00
2018-06-28T17:03:16.165Z,98663.00
2018-06-28T17:05:46.496Z,98664.00
2018-06-28T17:08:15.892Z,98666.00
2018-06-28T17:10:45.649Z,98662.00
2018-06-28T17:13:14.830Z,98655.00
2018-06-28T17:15:44.410Z,98652.00
2018-06-28T17:18:13.553Z,98657.00
2018-06-28T17:20:42.895Z,98655.00
2018-06-28T17:23:12.090Z,98655.00
2018-06-28T17:25:41.233Z,98655.00
2018-06-28T17:28:10.384Z,98644.00
2018-06-28T17:30:40.141Z,98651.00
2018-06-28T17:33:10.473Z,98648.00
2018-06-28T17:35:39.605Z,98654.00
2018-06-28T17:38:08.769Z,98651.00
2018-06-28T17:40:37.980Z,98650.00
2018-06-28T17:43:07.209Z,98649.00
2018-06-28T17:45:36.657Z,98654.00
2018-06-28T17:48:06.020Z,98654.00
2018-06-28T17:50:35.134Z,98651.00
2018-06-28T17:53:04.516Z,98646.00
2018-06-28T17:55:33.660Z,98649.00
2018-06-28T17:58:03.321Z,98649.00
2018-06-28T18:00:32.513Z,98647.00
2018-06-28T18:03:01.853Z,98653.00
2018-06-28T18:05:31.744Z,98651.00
2018-06-28T18:08:00.972Z,98654.00
2018-06-28T18:10:32.613Z,98648.00
2018-06-28T18:13:02.649Z,98649.00
2018-06-28T18:15:32.440Z,98644.00
2018-06-28T18:18:01.565Z,98647.00
2018-06-28T18:20:31.653Z,98651.00
2018-06-28T18:23:00.851Z,98643.00
2018-06-28T18:25:30.593Z,98642.00
2018-06-28T18:27:59.789Z,98635.00
2018-06-28T18:30:30.425Z,98637.00
2018-06-28T18:32:59.593Z,98639.00
2018-06-28T18:35:28.822Z,98634.00
2018-06-28T18:37:58.091Z,98635.00
2018-06-28T18:40:27.221Z,98640.00
2018-06-28T18:42:56.414Z,98636.00
2018-06-28T18:45:25.885Z,98640.00
2018-06-28T18:47:55.900Z,98642.00
2018-06-28T18:50:25.108Z,98641.00
2018-06-28T18:52:54.329Z,98637.00
2018-06-28T18:55:23.546Z,98645.00
2018-06-28T18:57:52.972Z,98638.00
2018-06-28T19:00:22.941Z,98643.00
2018-06-28T19:02:52.118Z,98643.00
2018-06-28T19:05:21.854Z,98643.00
2018-06-28T19:07:51.220Z,98642.00
2018-06-28T19:10:25.628Z,98641.00
2018-06-28T19:12:54.950Z,98639.00
2018-06-28T19:15:29.914Z,98641.00
2018-06-28T19:17:59.424Z,98642.00
2018-06-28T19:20:28.655Z,98646.00
2018-06-28T19:23:04.981Z,98649.00
2018-06-28T19:25:35.028Z,98649.00
2018-06-28T19:28:05.798Z,98647.00
2018-06-28T19:30:40.198Z,98644.00
2018-06-28T19:33:10.528Z,98651.00
2018-06-28T19:35:39.991Z,98653.00
2018-06-28T19:38:09.157Z,98667.00
2018-06-28T19:40:44.863Z,98669.00
2018-06-28T19:43:13.976Z,98675.00
2018-06-28T19:45:43.134Z,98676.00
2018-06-28T19:48:13.222Z,98688.00
2018-06-28T19:50:47.493Z,98698.00
2018-06-28T19:53:18.036Z,98702.00
2018-06-28T19:55:47.309Z,98700.00
2018-06-28T19:58:17.185Z,98709.00
2018-06-28T20:00:52.344Z,98712.00
2018-06-28T20:03:28.152Z,98720.00
2018-06-28T20:05:57.577Z,98726.00
2018-06-28T20:08:26.648Z,98734.00
2018-06-28T20:10:56.011Z,98733.00
2018-06-28T20:13:30.474Z,98738.00
2018-06-28T20:16:04.921Z,98736.00
2018-06-28T20:18:39.436Z,98745.00
2018-06-28T20:21:09.103Z,98749.00
2018-06-28T20:23:38.593Z,98747.00
2018-06-28T20:26:13.171Z,98753.00
2018-06-28T20:28:47.927Z,98754.00
2018-06-28T20:31:22.329Z,98755.00
2018-06-28T20:33:56.787Z,98753.00
2018-06-28T20:36:26.461Z,98759.00
2018-06-28T20:38:55.661Z,98760.00
2018-06-28T20:41:24.824Z,98756.00
2018-06-28T20:43:55.185Z,98760.00
2018-06-28T20:46:24.365Z,98763.00
2018-06-28T20:48:53.473Z,98761.00
2018-06-28T20:51:22.644Z,98764.00
2018-06-28T20:53:53.848Z,98770.00
2018-06-28T20:56:23.394Z,98772.00
2018-06-28T20:58:52.596Z,98765.00
2018-06-28T21:01:21.797Z,98769.00
2018-06-28T21:03:51.653Z,98770.00
2018-06-28T21:06:21.136Z,98772.00
2018-06-28T21:08:51.336Z,98776.00
2018-06-28T21:11:21.432Z,98785.00
2018-06-28T21:13:50.583Z,98789.00
2018-06-28T21:16:20.433Z,98791.00
2018-06-28T21:18:49.659Z,98786.00
2018-06-28T21:21:19.080Z,98789.00
2018-06-28T21:23:48.217Z,98787.00
2018-06-28T21:26:17.600Z,98785.00
2018-06-28T21:28:46.837Z,98783.00
2018-06-28T21:31:16.647Z,98786.00
2018-06-28T21:33:45.796Z,98782.00
2018-06-28T21:36:14.973Z,98781.00
2018-06-28T21:38:44.973Z,98786.00
2018-06-28T21:41:14.642Z,98789.00
2018-06-28T21:43:43.845Z,98787.00
2018-06-28T21:46:13.316Z,98788.00
2018-06-28T21:48:42.505Z,98796.00
2018-06-28T21:51:11.865Z,98787.00
2018-06-28T21:53:41.349Z,98784.00
2018-06-28T21:56:10.673Z,98781.00
2018-06-28T21:58:39.856Z,98777.00
2018-06-28T22:01:09.614Z,98778.00
2018-06-28T22:03:38.769Z,98780.00
2018-06-28T22:06:08.733Z,98779.00
2018-06-28T22:08:38.204Z,98780.00
2018-06-28T22:11:08.317Z,98774.00
2018-06-28T22:13:37.700Z,98774.00
2018-06-28T22:16:07.117Z,98772.00
2018-06-28T22:18:36.413Z,98766.00
2018-06-28T22:21:06.525Z,98769.00
2018-06-28T22:23:36.532Z,98777.00
2018-06-28T22:26:05.751Z,98769.00
2018-06-28T22:28:36.436Z,98762.00
2018-06-28T22:31:05.876Z,98764.00
2018-06-28T22:33:35.001Z,98762.00
2018-06-28T22:36:04.173Z,98755.00
2018-06-28T22:38:33.537Z,98752.00
2018-06-28T22:41:02.672Z,98755.00
2018-06-28T22:43:31.982Z,98752.00
2018-06-28T22:46:01.288Z,98755.00
2018-06-28T22:48:30.492Z,98757.00
2018-06-28T22:51:00.109Z,98752.00
2018-06-28T22:53:29.593Z,98756.00
2018-06-28T22:55:58.744Z,98750.00
2018-06-28T22:58:27.830Z,98747.00
2018-06-28T23:00:57.380Z,98752.00
2018-06-28T23:03:27.873Z,98754.00
2018-06-28T23:05:57.200Z,98748.00
2018-06-28T23:08:26.549Z,98759.00
2018-06-28T23:10:55.602Z,98755.00
2018-06-28T23:13:24.912Z,98755.00
2018-06-28T23:15:54.038Z,98757.00
2018-06-28T23:18:23.117Z,98751.00
2018-06-28T23:20:53.017Z,98754.00
2018-06-28T23:23:22.700Z,98754.00
2018-06-28T23:25:52.557Z,98751.00
2018-06-28T23:28:21.652Z,98754.00
2018-06-28T23:30:50.800Z,98745.00
2018-06-28T23:33:20.449Z,98745.00
2018-06-28T23:35:50.073Z,98738.00
2018-06-28T23:38:19.831Z,98733.00
2018-06-28T23:40:48.949Z,98734.00
2018-06-28T23:43:18.084Z,98736.00
2018-06-28T23:45:47.832Z,98738.00
2018-06-28T23:48:17.109Z,98740.00
2018-06-28T23:50:46.257Z,98740.00
2018-06-28T23:53:15.645Z,98743.00
2018-06-28T23:55:44.892Z,98739.00
2018-06-28T23:58:13.993Z,98741.00
